Altha, Florida
Current Conditions -  °F | °C
As of 6:53 AM on Friday 19 Dec 2014 (Local Time) from KMAI Reporting Station
Overcast Overcast  
Wind Chill: 49°   Ceiling: 5000
Heat Index: 49°   Visibility: 10mi
Dew Point: 41°   Wind: 3mph
Humidity: 74%   Direction: 70°ENE
Pressure: 30.15"   Gusts: NA
Location:  30.57°N, 85.13°W
Report Text: KMAI 191253Z AUTO 07003KT 10SM OVC050 09/05 A3015 RMK AO2 SLP209 T00940050 $
Loading
Personal Weather Stations






























Interactive Weather Map New forecast layout! Learn more

10-Day Weather Forecast

Advertisements
Track Severe Weather on mobile